Time,TemperatureF,DewpointF,PressureIn,WindDirection,WindDirectionDegrees,WindSpeedMPH,WindSpeedGustMPH,Humidity,HourlyPrecipIn,Conditions,Clouds,dailyrainin,SoftwareType,DateUTC
2013-11-07 00:10:00,52.6,51.0,30.09,SE,126,0.0,0.0,94,0.00,,,0.00,weatherlink.com 1.10,2013-11-07 05:10:00,
2013-11-07 00:25:00,52.5,51.0,30.09,SE,126,0.0,0.0,95,0.00,,,0.00,weatherlink.com 1.10,2013-11-07 05:25:00,
2013-11-07 00:40:00,52.0,51.0,30.09,SE,126,0.0,0.0,95,0.00,,,0.00,weatherlink.com 1.10,2013-11-07 05:40:00,
2013-11-07 00:55:00,51.7,50.0,30.08,SE,126,0.0,0.0,95,0.00,,,0.00,weatherlink.com 1.10,2013-11-07 05:55:00,
2013-11-07 01:10:00,51.6,50.0,30.08,SE,126,0.0,0.0,95,0.00,,,0.00,weatherlink.com 1.10,2013-11-07 06:10:00,
2013-11-07 01:25:00,51.3,50.0,30.07,SE,126,0.0,0.0,95,0.00,,,0.00,weatherlink.com 1.10,2013-11-07 06:25:00,
2013-11-07 01:40:00,51.4,50.0,30.07,SE,126,0.0,0.0,96,0.00,,,0.00,weatherlink.com 1.10,2013-11-07 06:40:00,
2013-11-07 01:55:00,51.3,50.0,30.07,SE,126,0.0,0.0,96,0.00,,,0.00,weatherlink.com 1.10,2013-11-07 06:55:00,
2013-11-07 02:10:00,51.4,50.0,30.06,SE,126,0.0,0.0,96,0.00,,,0.00,weatherlink.com 1.10,2013-11-07 07:10:00,
2013-11-07 02:25:00,51.7,51.0,30.05,SE,126,0.0,0.0,96,0.00,,,0.00,weatherlink.com 1.10,2013-11-07 07:25:00,
2013-11-07 02:40:00,51.9,51.0,30.04,SE,126,0.0,0.0,96,0.00,,,0.00,weatherlink.com 1.10,2013-11-07 07:40:00,
2013-11-07 02:55:00,51.7,51.0,30.04,SE,126,0.0,0.0,96,0.00,,,0.00,weatherlink.com 1.10,2013-11-07 07:55:00,
2013-11-07 03:10:00,51.3,50.0,30.03,SE,126,0.0,0.0,96,0.00,,,0.00,weatherlink.com 1.10,2013-11-07 08:10:00,
2013-11-07 03:25:00,50.8,50.0,30.03,SE,126,0.0,0.0,96,0.00,,,0.00,weatherlink.com 1.10,2013-11-07 08:25:00,
2013-11-07 03:40:00,50.7,50.0,30.02,SE,126,0.0,0.0,96,0.00,,,0.00,weatherlink.com 1.10,2013-11-07 08:40:00,
2013-11-07 03:55:00,50.4,49.0,30.02,SE,126,0.0,0.0,96,0.00,,,0.00,weatherlink.com 1.10,2013-11-07 08:55:00,
2013-11-07 04:10:00,50.1,49.0,30.01,SE,126,0.0,0.0,96,0.00,,,0.00,weatherlink.com 1.10,2013-11-07 09:10:00,
2013-11-07 04:25:00,49.6,49.0,30.01,SE,126,0.0,0.0,96,0.00,,,0.00,weatherlink.com 1.10,2013-11-07 09:25:00,
2013-11-07 04:40:00,49.4,48.0,30.00,SE,126,0.0,0.0,96,0.00,,,0.00,weatherlink.com 1.10,2013-11-07 09:40:00,
2013-11-07 04:55:00,49.1,48.0,30.00,SE,126,0.0,0.0,96,0.00,,,0.00,weatherlink.com 1.10,2013-11-07 09:55:00,
2013-11-07 05:10:00,48.8,48.0,29.99,SE,126,0.0,0.0,96,0.00,,,0.00,weatherlink.com 1.10,2013-11-07 10:10:00,
2013-11-07 05:25:00,48.5,48.0,29.98,SE,126,0.0,0.0,96,0.00,,,0.00,weatherlink.com 1.10,2013-11-07 10:25:00,
2013-11-07 05:41:00,48.3,47.0,29.99,SE,126,0.0,0.0,96,0.00,,,0.00,weatherlink.com 1.10,2013-11-07 10:41:00,
2013-11-07 05:56:00,48.0,47.0,29.98,SE,126,0.0,0.0,96,0.00,,,0.00,weatherlink.com 1.10,2013-11-07 10:56:00,
2013-11-07 06:11:00,47.9,47.0,30.00,SE,126,0.0,0.0,96,0.00,,,0.00,weatherlink.com 1.10,2013-11-07 11:11:00,
2013-11-07 06:26:00,47.9,47.0,30.00,SE,126,0.0,0.0,96,0.00,,,0.00,weatherlink.com 1.10,2013-11-07 11:26:00,
2013-11-07 06:41:00,47.6,47.0,30.00,SE,126,0.0,0.0,96,0.00,,,0.00,weatherlink.com 1.10,2013-11-07 11:41:00,
2013-11-07 06:56:00,47.6,47.0,30.00,SE,126,0.0,0.0,97,0.00,,,0.00,weatherlink.com 1.10,2013-11-07 11:56:00,
2013-11-07 07:11:00,47.9,47.0,30.00,SE,126,0.0,0.0,97,0.00,,,0.00,weatherlink.com 1.10,2013-11-07 12:11:00,
2013-11-07 07:26:00,47.7,47.0,30.00,SE,126,0.0,0.0,97,0.00,,,0.00,weatherlink.com 1.10,2013-11-07 12:26:00,
2013-11-07 07:41:00,47.9,47.0,30.00,SE,126,0.0,0.0,97,0.00,,,0.00,weatherlink.com 1.10,2013-11-07 12:41:00,
2013-11-07 07:56:00,48.3,48.0,30.00,SE,126,0.0,0.0,98,0.00,,,0.00,weatherlink.com 1.10,2013-11-07 12:56:00,
2013-11-07 08:11:00,49.4,49.0,30.00,SE,127,0.0,0.0,98,0.00,,,0.00,weatherlink.com 1.10,2013-11-07 13:11:00,
2013-11-07 08:26:00,51.4,51.0,30.00,SE,127,0.0,0.0,99,0.00,,,0.00,weatherlink.com 1.10,2013-11-07 13:26:00,
2013-11-07 08:41:00,53.3,53.0,30.00,SE,127,0.0,0.0,99,0.00,,,0.00,weatherlink.com 1.10,2013-11-07 13:41:00,
2013-11-07 08:56:00,55.9,56.0,30.00,NE,53,0.0,2.0,99,0.00,,,0.00,weatherlink.com 1.10,2013-11-07 13:56:00,
2013-11-07 09:11:00,56.9,57.0,30.00,NE,53,0.0,0.0,99,0.00,,,0.00,weatherlink.com 1.10,2013-11-07 14:11:00,
2013-11-07 09:26:00,57.0,56.0,30.01,NE,53,0.0,0.0,96,0.00,,,0.00,weatherlink.com 1.10,2013-11-07 14:26:00,
2013-11-07 09:41:00,57.5,56.0,30.01,NE,53,0.0,0.0,94,0.00,,,0.00,weatherlink.com 1.10,2013-11-07 14:41:00,
2013-11-07 09:56:00,57.8,56.0,30.00,SE,126,0.0,2.0,92,0.00,,,0.00,weatherlink.com 1.10,2013-11-07 14:56:00,
2013-11-07 10:11:00,58.3,56.0,30.00,SE,126,0.0,0.0,91,0.00,,,0.00,weatherlink.com 1.10,2013-11-07 15:11:00,
2013-11-07 10:26:00,59.0,56.0,29.98,SE,126,0.0,0.0,89,0.00,,,0.00,weatherlink.com 1.10,2013-11-07 15:26:00,
2013-11-07 10:41:00,59.9,56.0,29.98,ESE,116,0.0,0.0,88,0.00,,,0.00,weatherlink.com 1.10,2013-11-07 15:41:00,
2013-11-07 10:56:00,60.7,56.0,29.98,SSW,203,0.0,2.0,85,0.00,,,0.00,weatherlink.com 1.10,2013-11-07 15:56:00,
2013-11-07 11:11:00,61.0,57.0,29.97,SE,129,0.0,3.0,85,0.00,,,0.00,weatherlink.com 1.10,2013-11-07 16:11:00,
2013-11-07 11:26:00,61.3,57.0,29.96,SE,129,0.0,2.0,85,0.00,,,0.00,weatherlink.com 1.10,2013-11-07 16:26:00,
2013-11-07 11:56:00,61.5,57.0,29.96,SE,129,0.0,0.0,86,0.00,,,0.00,weatherlink.com 1.10,2013-11-07 16:56:00,
2013-11-07 12:11:00,61.6,57.0,29.96,SE,129,0.0,0.0,86,0.00,,,0.00,weatherlink.com 1.10,2013-11-07 17:11:00,
2013-11-07 12:26:00,61.8,58.0,29.95,SE,128,0.0,1.0,87,0.00,,,0.00,weatherlink.com 1.10,2013-11-07 17:26:00,
2013-11-07 12:41:00,62.3,58.0,29.95,SE,128,0.0,0.0,86,0.00,,,0.00,weatherlink.com 1.10,2013-11-07 17:41:00,
2013-11-07 12:56:00,62.9,59.0,29.95,West,272,0.0,1.0,87,0.00,,,0.00,weatherlink.com 1.10,2013-11-07 17:56:00,
2013-11-07 13:11:00,64.0,59.0,29.95,South,174,0.0,2.0,83,0.00,,,0.00,weatherlink.com 1.10,2013-11-07 18:11:00,
2013-11-07 13:26:00,65.2,59.0,29.94,SW,215,0.0,1.0,80,0.00,,,0.00,weatherlink.com 1.10,2013-11-07 18:26:00,
2013-11-07 13:41:00,66.6,59.0,29.93,SE,131,0.0,2.0,77,0.00,,,0.00,weatherlink.com 1.10,2013-11-07 18:41:00,
2013-11-07 13:56:00,67.9,59.0,29.93,WNW,287,1.0,2.0,72,0.00,,,0.00,weatherlink.com 1.10,2013-11-07 18:56:00,
2013-11-07 14:11:00,68.4,58.0,29.93,West,260,0.0,4.0,69,0.00,,,0.00,weatherlink.com 1.10,2013-11-07 19:11:00,
2013-11-07 14:26:00,67.9,57.0,29.93,East,91,0.0,3.0,68,0.00,,,0.00,weatherlink.com 1.10,2013-11-07 19:26:00,
2013-11-07 14:41:00,67.9,57.0,29.93,SW,229,0.0,2.0,68,0.00,,,0.00,weatherlink.com 1.10,2013-11-07 19:41:00,
2013-11-07 14:56:00,68.4,57.0,29.93,East,79,0.0,7.0,66,0.00,,,0.00,weatherlink.com 1.10,2013-11-07 19:56:00,
2013-11-07 15:11:00,68.1,56.0,29.93,NNW,328,0.0,3.0,66,0.00,,,0.00,weatherlink.com 1.10,2013-11-07 20:11:00,
2013-11-07 15:26:00,68.1,56.0,29.93,East,86,1.0,5.0,65,0.00,,,0.00,weatherlink.com 1.10,2013-11-07 20:26:00,
2013-11-07 15:41:00,67.9,55.0,29.93,ESE,121,0.0,3.0,63,0.00,,,0.00,weatherlink.com 1.10,2013-11-07 20:41:00,
2013-11-07 15:56:00,67.9,55.0,29.93,North,349,0.0,5.0,64,0.00,,,0.00,weatherlink.com 1.10,2013-11-07 20:56:00,
2013-11-07 16:11:00,67.8,55.0,29.94,ENE,65,0.0,3.0,63,0.00,,,0.00,weatherlink.com 1.10,2013-11-07 21:11:00,
2013-11-07 16:27:00,67.6,49.0,29.95,NNW,338,1.0,7.0,52,0.00,,,0.00,weatherlink.com 1.10,2013-11-07 21:27:00,
2013-11-07 16:42:00,66.4,48.0,29.96,SSW,196,2.0,5.0,52,0.00,,,0.00,weatherlink.com 1.10,2013-11-07 21:42:00,
2013-11-07 16:57:00,64.7,45.0,29.97,ENE,64,0.0,4.0,49,0.00,,,0.00,weatherlink.com 1.10,2013-11-07 21:57:00,
2013-11-07 17:12:00,62.9,42.0,29.98,NE,35,0.0,7.0,47,0.00,,,0.00,weatherlink.com 1.10,2013-11-07 22:12:00,
2013-11-07 17:27:00,61.3,40.0,29.99,NW,304,2.0,2.0,45,0.00,,,0.00,weatherlink.com 1.10,2013-11-07 22:27:00,
2013-11-07 17:42:00,60.1,39.0,30.01,ENE,61,3.0,7.0,45,0.00,,,0.00,weatherlink.com 1.10,2013-11-07 22:42:00,
2013-11-07 17:57:00,59.2,36.0,30.01,North,355,5.0,5.0,42,0.00,,,0.00,weatherlink.com 1.10,2013-11-07 22:57:00,
2013-11-07 18:12:00,58.1,37.0,30.03,NNE,24,0.0,2.0,45,0.00,,,0.00,weatherlink.com 1.10,2013-11-07 23:12:00,
2013-11-07 18:27:00,57.0,36.0,30.04,East,93,1.0,3.0,46,0.00,,,0.00,weatherlink.com 1.10,2013-11-07 23:27:00,
2013-11-07 18:42:00,56.2,35.0,30.05,NW,310,0.0,5.0,45,0.00,,,0.00,weatherlink.com 1.10,2013-11-07 23:42:00,
2013-11-07 18:57:00,55.4,35.0,30.06,East,94,1.0,3.0,46,0.00,,,0.00,weatherlink.com 1.10,2013-11-07 23:57:00,
2013-11-07 19:12:00,55.0,34.0,30.06,East,94,0.0,4.0,45,0.00,,,0.00,weatherlink.com 1.10,2013-11-08 00:12:00,
2013-11-07 19:27:00,54.2,34.0,30.06,NW,321,0.0,2.0,47,0.00,,,0.00,weatherlink.com 1.10,2013-11-08 00:27:00,
2013-11-07 19:42:00,53.3,35.0,30.07,NNW,345,0.0,1.0,51,0.00,,,0.00,weatherlink.com 1.10,2013-11-08 00:42:00,
2013-11-07 19:57:00,53.1,34.0,30.08,East,82,0.0,5.0,48,0.00,,,0.00,weatherlink.com 1.10,2013-11-08 00:57:00,
2013-11-07 20:12:00,52.8,34.0,30.08,East,96,0.0,1.0,50,0.00,,,0.00,weatherlink.com 1.10,2013-11-08 01:12:00,
2013-11-07 20:27:00,51.9,34.0,30.08,North,355,0.0,4.0,51,0.00,,,0.00,weatherlink.com 1.10,2013-11-08 01:27:00,
2013-11-07 20:42:00,51.3,34.0,30.09,ENE,74,0.0,3.0,51,0.00,,,0.00,weatherlink.com 1.10,2013-11-08 01:42:00,
2013-11-07 20:57:00,50.7,33.0,30.09,NE,38,0.0,2.0,51,0.00,,,0.00,weatherlink.com 1.10,2013-11-08 01:57:00,
2013-11-07 21:12:00,50.2,33.0,30.09,NE,49,0.0,3.0,51,0.00,,,0.00,weatherlink.com 1.10,2013-11-08 02:12:00,
2013-11-07 21:27:00,49.8,32.0,30.09,ENE,74,0.0,5.0,50,0.00,,,0.00,weatherlink.com 1.10,2013-11-08 02:27:00,
2013-11-07 21:42:00,49.4,32.0,30.09,ENE,57,0.0,4.0,51,0.00,,,0.00,weatherlink.com 1.10,2013-11-08 02:42:00,
2013-11-07 21:57:00,48.9,32.0,30.09,East,85,0.0,3.0,53,0.00,,,0.00,weatherlink.com 1.10,2013-11-08 02:57:00,
2013-11-07 22:12:00,48.6,32.0,30.09,NE,34,0.0,2.0,54,0.00,,,0.00,weatherlink.com 1.10,2013-11-08 03:12:00,
2013-11-07 22:27:00,48.0,32.0,30.09,East,80,0.0,3.0,55,0.00,,,0.00,weatherlink.com 1.10,2013-11-08 03:27:00,
2013-11-07 22:45:00,47.1,33.0,30.10,SSW,203,0.0,1.0,59,0.00,,,0.00,weatherlink.com 1.10,2013-11-08 03:45:00,
2013-11-07 22:57:00,46.4,33.0,30.10,SSW,203,0.0,0.0,59,0.00,,,0.00,weatherlink.com 1.10,2013-11-08 03:57:00,
2013-11-07 23:12:00,45.8,33.0,30.10,SSW,205,0.0,0.0,61,0.00,,,0.00,weatherlink.com 1.10,2013-11-08 04:12:00,
2013-11-07 23:27:00,45.4,33.0,30.10,SSW,205,0.0,0.0,63,0.00,,,0.00,weatherlink.com 1.10,2013-11-08 04:27:00,
2013-11-07 23:42:00,45.4,33.0,30.11,NE,38,0.0,0.0,62,0.00,,,0.00,weatherlink.com 1.10,2013-11-08 04:42:00,
2013-11-07 23:57:00,45.2,33.0,30.11,NE,55,0.0,1.0,62,0.00,,,0.00,weatherlink.com 1.10,2013-11-08 04:57:00,